createdAt,value
2018-03-04T00:02:22.177Z,99.90
2018-03-04T00:04:52.033Z,99.90
2018-03-04T00:07:22.685Z,99.90
2018-03-04T00:09:53.282Z,99.90
2018-03-04T00:12:23.121Z,99.90
2018-03-04T00:14:53.716Z,99.90
2018-03-04T00:17:23.497Z,99.90
2018-03-04T00:19:53.311Z,99.90
2018-03-04T00:22:34.332Z,99.90
2018-03-04T00:25:04.608Z,99.90
2018-03-04T00:27:34.464Z,99.90
2018-03-04T00:30:04.248Z,99.90
2018-03-04T00:32:34.427Z,99.90
2018-03-04T00:35:04.989Z,99.90
2018-03-04T00:37:34.792Z,99.90
2018-03-04T00:40:04.263Z,99.90
2018-03-04T00:42:34.832Z,99.90
2018-03-04T00:45:04.320Z,99.90
2018-03-04T00:47:34.109Z,99.90
2018-03-04T00:50:04.277Z,99.90
2018-03-04T00:52:34.050Z,99.90
2018-03-04T00:55:04.625Z,99.90
2018-03-04T00:57:34.414Z,99.90
2018-03-04T01:00:03.888Z,99.90
2018-03-04T01:02:33.404Z,99.90
2018-03-04T01:05:03.677Z,99.90
2018-03-04T01:07:33.457Z,99.90
2018-03-04T01:10:02.954Z,99.90
2018-03-04T01:12:32.750Z,99.90
2018-03-04T01:15:02.554Z,99.90
2018-03-04T01:17:32.397Z,99.90
2018-03-04T01:20:02.260Z,99.90
2018-03-04T01:22:31.858Z,99.90
2018-03-04T01:25:01.714Z,99.90
2018-03-04T01:27:32.026Z,99.90
2018-03-04T01:30:01.842Z,99.90
2018-03-04T01:32:31.683Z,99.90
2018-03-04T01:35:01.505Z,99.90
2018-03-04T01:37:31.324Z,99.90
2018-03-04T01:40:01.119Z,99.90
2018-03-04T01:42:31.502Z,99.90
2018-03-04T01:45:02.083Z,99.90
2018-03-04T01:47:31.909Z,99.90
2018-03-04T01:50:01.763Z,99.90
2018-03-04T01:52:31.592Z,99.90
2018-03-04T01:55:01.412Z,99.90
2018-03-04T01:57:30.937Z,99.90
2018-03-04T02:00:01.615Z,99.90
2018-03-04T02:02:31.608Z,99.90
2018-03-04T02:05:01.433Z,99.90
2018-03-04T02:07:30.803Z,99.90
2018-03-04T02:10:01.448Z,99.90
2018-03-04T02:12:31.481Z,99.90
2018-03-04T02:15:01.260Z,99.90
2018-03-04T02:17:30.887Z,99.90
2018-03-04T02:20:00.790Z,99.90
2018-03-04T02:22:30.432Z,99.90
2018-03-04T02:25:00.730Z,99.90
2018-03-04T02:27:30.543Z,99.90
2018-03-04T02:30:00.342Z,99.90
2018-03-04T02:32:30.070Z,99.90
2018-03-04T02:34:59.842Z,99.90
2018-03-04T02:37:30.437Z,99.90
2018-03-04T02:40:00.227Z,99.90
2018-03-04T02:42:30.044Z,99.90
2018-03-04T02:44:59.816Z,99.90
2018-03-04T02:47:30.395Z,99.90
2018-03-04T02:50:00.223Z,99.90
2018-03-04T02:52:30.026Z,99.90
2018-03-04T02:54:59.797Z,99.90
2018-03-04T02:57:30.393Z,99.90
2018-03-04T03:00:00.176Z,99.90
2018-03-04T03:02:29.968Z,99.90
2018-03-04T03:04:59.792Z,99.90
2018-03-04T03:07:29.597Z,99.90
2018-03-04T03:09:59.469Z,99.90
2018-03-04T03:12:29.264Z,99.90
2018-03-04T03:14:59.255Z,99.90
2018-03-04T03:17:29.067Z,99.90
2018-03-04T03:19:58.853Z,99.90
2018-03-04T03:22:29.513Z,99.90
2018-03-04T03:24:59.331Z,99.90
2018-03-04T03:27:29.168Z,99.90
2018-03-04T03:29:58.990Z,99.90
2018-03-04T03:32:28.767Z,99.90
2018-03-04T03:34:58.857Z,99.90
2018-03-04T03:37:28.633Z,99.90
2018-03-04T03:39:58.452Z,99.90
2018-03-04T03:42:28.222Z,99.90
2018-03-04T03:44:58.054Z,99.90
2018-03-04T03:47:27.845Z,99.90
2018-03-04T03:49:57.638Z,99.90
2018-03-04T03:52:27.468Z,99.90
2018-03-04T03:54:57.244Z,99.90
2018-03-04T03:57:27.063Z,99.90
2018-03-04T03:59:57.648Z,99.90
2018-03-04T04:02:27.424Z,99.90
2018-03-04T04:04:57.249Z,99.90
2018-03-04T04:07:27.049Z,99.90
2018-03-04T04:09:56.874Z,99.90
2018-03-04T04:12:26.654Z,99.90
2018-03-04T04:14:56.189Z,99.90
2018-03-04T04:17:25.985Z,99.90
2018-03-04T04:19:55.789Z,99.90
2018-03-04T04:22:26.328Z,99.90
2018-03-04T04:24:56.181Z,99.90
2018-03-04T04:27:25.954Z,99.90
2018-03-04T04:29:55.522Z,99.90
2018-03-04T04:32:25.320Z,99.90
2018-03-04T04:34:55.094Z,99.90
2018-03-04T04:37:24.929Z,99.90
2018-03-04T04:39:54.746Z,99.90
2018-03-04T04:42:24.560Z,99.90
2018-03-04T04:44:54.373Z,99.90
2018-03-04T04:47:24.168Z,99.90
2018-03-04T04:49:54.060Z,99.90
2018-03-04T04:52:23.829Z,99.90
2018-03-04T04:54:53.384Z,99.90
2018-03-04T04:57:22.977Z,99.90
2018-03-04T04:59:52.824Z,99.90
2018-03-04T05:02:22.628Z,99.90
2018-03-04T05:04:52.418Z,99.90
2018-03-04T05:07:22.247Z,99.90
2018-03-04T05:09:52.030Z,99.90
2018-03-04T05:12:22.638Z,99.90
2018-03-04T05:14:52.459Z,99.90
2018-03-04T05:17:22.235Z,99.90
2018-03-04T05:19:52.035Z,99.90
2018-03-04T05:22:21.836Z,99.90
2018-03-04T05:24:51.609Z,99.90
2018-03-04T05:27:21.590Z,99.90
2018-03-04T05:29:51.359Z,99.90
2018-03-04T05:32:21.935Z,99.90
2018-03-04T05:34:51.721Z,99.90
2018-03-04T05:37:21.539Z,99.90
2018-03-04T05:39:51.327Z,99.90
2018-03-04T05:42:21.928Z,99.90
2018-03-04T05:44:51.767Z,99.90
2018-03-04T05:47:22.382Z,99.90
2018-03-04T05:49:52.546Z,99.90
2018-03-04T05:52:22.344Z,99.90
2018-03-04T05:54:52.165Z,99.90
2018-03-04T05:57:22.617Z,99.90
2018-03-04T05:59:52.467Z,99.90
2018-03-04T06:02:23.764Z,99.90
2018-03-04T06:04:53.571Z,99.90
2018-03-04T06:07:23.350Z,99.90
2018-03-04T06:09:53.918Z,99.90
2018-03-04T06:12:23.822Z,99.90
2018-03-04T06:14:53.622Z,99.90
2018-03-04T06:17:23.409Z,99.90
2018-03-04T06:19:54.049Z,99.90
2018-03-04T06:22:24.639Z,99.90
2018-03-04T06:24:54.453Z,99.90
2018-03-04T06:27:24.229Z,99.90
2018-03-04T06:29:54.034Z,99.90
2018-03-04T06:32:23.813Z,99.90
2018-03-04T06:34:53.614Z,99.90
2018-03-04T06:37:23.428Z,99.90
2018-03-04T06:39:53.193Z,99.90
2018-03-04T06:42:23.050Z,99.90
2018-03-04T06:44:52.821Z,99.90
2018-03-04T06:47:22.800Z,99.90
2018-03-04T06:49:52.573Z,99.90
2018-03-04T06:52:22.204Z,99.90
2018-03-04T06:54:51.986Z,99.90
2018-03-04T06:57:21.945Z,99.90
2018-03-04T06:59:51.727Z,99.90
2018-03-04T07:02:21.549Z,99.90
2018-03-04T07:04:51.359Z,99.90
2018-03-04T07:07:21.790Z,99.90
2018-03-04T07:09:51.593Z,99.90
2018-03-04T07:12:21.376Z,99.90
2018-03-04T07:14:51.253Z,99.90
2018-03-04T07:17:21.463Z,99.90
2018-03-04T07:19:51.319Z,99.90
2018-03-04T07:22:21.125Z,99.90
2018-03-04T07:24:51.690Z,99.90
2018-03-04T07:27:22.441Z,99.90
2018-03-04T07:29:52.242Z,98.20
2018-03-04T07:32:22.017Z,98.10
2018-03-04T07:34:52.581Z,97.10
2018-03-04T07:37:22.964Z,97.00
2018-03-04T07:39:53.554Z,96.70
2018-03-04T07:42:23.334Z,96.60
2018-03-04T07:44:53.134Z,96.40
2018-03-04T07:47:22.380Z,96.50
2018-03-04T07:49:52.206Z,94.00
2018-03-04T07:52:22.082Z,90.90
2018-03-04T07:54:52.003Z,86.70
2018-03-04T07:57:21.806Z,81.80
2018-03-04T07:59:51.608Z,77.90
2018-03-04T08:02:21.645Z,77.20
2018-03-04T08:04:51.458Z,75.20
2018-03-04T08:07:21.655Z,76.80
2018-03-04T08:09:51.583Z,74.70
2018-03-04T08:12:21.366Z,73.60
2018-03-04T08:14:52.516Z,70.90
2018-03-04T08:17:22.523Z,70.70
2018-03-04T08:19:53.120Z,72.20
2018-03-04T08:22:22.924Z,72.10
2018-03-04T08:25:03.978Z,71.30
2018-03-04T08:27:44.827Z,71.70
2018-03-04T08:30:14.352Z,71.80
2018-03-04T08:32:44.131Z,70.60
2018-03-04T08:35:14.747Z,65.80
2018-03-04T08:37:44.603Z,65.80
2018-03-04T08:40:14.216Z,64.70
2018-03-04T08:42:44.016Z,61.90
2018-03-04T08:45:13.819Z,60.80
2018-03-04T08:47:44.369Z,59.00
2018-03-04T08:50:14.164Z,59.00
2018-03-04T08:52:44.810Z,57.00
2018-03-04T08:55:14.679Z,57.00
2018-03-04T08:57:44.460Z,56.50
2018-03-04T09:00:14.249Z,55.70
2018-03-04T09:02:44.097Z,54.80
2018-03-04T09:05:13.921Z,54.50
2018-03-04T09:07:43.727Z,53.40
2018-03-04T09:10:13.520Z,52.20
2018-03-04T09:12:43.361Z,52.00
2018-03-04T09:15:13.309Z,52.40
2018-03-04T09:17:43.873Z,53.30
2018-03-04T09:20:13.672Z,53.30
2018-03-04T09:22:43.460Z,52.30
2018-03-04T09:25:14.060Z,51.80
2018-03-04T09:27:43.817Z,51.80
2018-03-04T09:30:13.344Z,50.50
2018-03-04T09:32:43.236Z,49.90
2018-03-04T09:35:13.008Z,48.90
2018-03-04T09:37:42.809Z,49.20
2018-03-04T09:40:12.639Z,48.30
2018-03-04T09:42:42.572Z,47.70
2018-03-04T09:45:13.100Z,48.10
2018-03-04T09:47:42.898Z,48.00
2018-03-04T09:50:12.759Z,47.80
2018-03-04T09:52:42.536Z,46.90
2018-03-04T09:55:13.110Z,46.80
2018-03-04T09:57:42.917Z,46.80
2018-03-04T10:00:12.698Z,46.10
2018-03-04T10:02:43.258Z,46.30
2018-03-04T10:05:13.625Z,46.30
2018-03-04T10:07:43.385Z,44.90
2018-03-04T10:10:13.198Z,44.10
2018-03-04T10:12:42.975Z,44.10
2018-03-04T10:15:12.791Z,43.50
2018-03-04T10:17:42.591Z,44.50
2018-03-04T10:20:12.660Z,44.20
2018-03-04T10:22:42.155Z,43.80
2018-03-04T10:25:11.956Z,43.70
2018-03-04T10:27:42.488Z,44.20
2018-03-04T10:30:12.423Z,44.20
2018-03-04T10:32:42.237Z,44.20
2018-03-04T10:35:12.002Z,43.30
2018-03-04T10:37:41.806Z,42.10
2018-03-04T10:40:11.582Z,41.60
2018-03-04T10:42:41.546Z,42.20
2018-03-04T10:45:11.335Z,41.60
2018-03-04T10:47:41.239Z,41.90
2018-03-04T10:50:11.034Z,40.90
2018-03-04T10:52:40.822Z,40.50
2018-03-04T10:55:11.434Z,40.60
2018-03-04T10:57:41.356Z,40.60
2018-03-04T11:00:11.741Z,41.20
2018-03-04T11:02:43.257Z,41.20
2018-03-04T11:05:13.430Z,41.10
2018-03-04T11:07:43.178Z,40.00
2018-03-04T11:10:13.741Z,38.00
2018-03-04T11:12:43.518Z,38.60
2018-03-04T11:15:13.399Z,36.80
2018-03-04T11:17:43.345Z,36.30
2018-03-04T11:20:14.154Z,36.30
2018-03-04T11:22:44.013Z,36.30
2018-03-04T11:25:13.817Z,35.90
2018-03-04T11:27:44.610Z,33.60
2018-03-04T11:30:14.373Z,33.60
2018-03-04T11:32:44.174Z,33.20
2018-03-04T11:35:14.714Z,32.60
2018-03-04T11:37:44.526Z,32.60
2018-03-04T11:40:14.327Z,33.30
2018-03-04T11:42:44.861Z,32.40
2018-03-04T11:45:15.501Z,32.30
2018-03-04T11:47:45.298Z,32.30
2018-03-04T11:50:15.870Z,33.90
2018-03-04T11:52:45.638Z,33.90
2018-03-04T11:55:16.228Z,32.10
2018-03-04T11:57:46.010Z,32.10
2018-03-04T12:00:15.830Z,30.60
2018-03-04T12:02:45.411Z,31.30
2018-03-04T12:05:15.221Z,30.40
2018-03-04T12:07:45.801Z,31.40
2018-03-04T12:10:15.606Z,31.40
2018-03-04T12:12:45.710Z,30.50
2018-03-04T12:15:15.721Z,29.40
2018-03-04T12:17:45.836Z,29.00
2018-03-04T12:20:15.879Z,28.50
2018-03-04T12:22:45.730Z,28.30
2018-03-04T12:25:15.514Z,27.90
2018-03-04T12:27:45.326Z,28.30
2018-03-04T12:30:15.123Z,27.60
2018-03-04T12:32:44.926Z,27.20
2018-03-04T12:35:14.753Z,27.00
2018-03-04T12:37:44.528Z,28.00
2018-03-04T12:40:14.326Z,28.10
2018-03-04T12:42:44.914Z,26.90
2018-03-04T12:45:14.718Z,26.90
2018-03-04T12:47:44.533Z,27.50
2018-03-04T12:50:14.347Z,28.10
2018-03-04T12:52:44.160Z,27.80
2018-03-04T12:55:13.953Z,27.70
2018-03-04T12:57:43.689Z,27.90
2018-03-04T13:00:13.476Z,27.40
2018-03-04T13:02:43.284Z,27.40
2018-03-04T13:05:13.300Z,26.90
2018-03-04T13:07:43.133Z,27.60
2018-03-04T13:10:12.908Z,27.70
2018-03-04T13:12:43.497Z,27.50
2018-03-04T13:15:13.269Z,27.50
2018-03-04T13:17:43.286Z,27.80
2018-03-04T13:20:13.076Z,26.80
2018-03-04T13:22:43.654Z,26.40
2018-03-04T13:25:13.432Z,26.40
2018-03-04T13:27:43.324Z,26.80
2018-03-04T13:30:13.542Z,26.30
2018-03-04T13:32:44.157Z,25.60
2018-03-04T13:35:13.949Z,25.50
2018-03-04T13:37:43.774Z,25.50
2018-03-04T13:40:14.363Z,26.60
2018-03-04T13:42:44.182Z,26.30
2018-03-04T13:45:14.230Z,25.90
2018-03-04T13:47:44.042Z,26.00
2018-03-04T13:50:13.879Z,26.10
2018-03-04T13:52:43.723Z,25.60
2018-03-04T13:55:14.286Z,26.70
2018-03-04T13:57:44.096Z,26.70
2018-03-04T14:00:13.884Z,25.90
2018-03-04T14:02:43.710Z,26.00
2018-03-04T14:05:13.488Z,26.60
2018-03-04T14:07:44.119Z,26.10
2018-03-04T14:10:14.140Z,26.10
2018-03-04T14:12:44.748Z,27.70
2018-03-04T14:15:14.543Z,27.60
2018-03-04T14:17:44.410Z,28.40
2018-03-04T14:20:14.232Z,29.20
2018-03-04T14:22:44.037Z,28.40
2018-03-04T14:25:14.655Z,28.00
2018-03-04T14:27:45.215Z,28.30
2018-03-04T14:30:15.082Z,28.30
2018-03-04T14:32:45.656Z,28.00
2018-03-04T14:35:15.478Z,28.00
2018-03-04T14:37:45.331Z,27.80
2018-03-04T14:40:14.966Z,28.10
2018-03-04T14:42:44.784Z,29.40
2018-03-04T14:45:14.620Z,30.00
2018-03-04T14:47:44.389Z,30.20
2018-03-04T14:50:14.273Z,30.20
2018-03-04T14:52:46.802Z,29.90
2018-03-04T14:55:17.049Z,29.20
2018-03-04T14:57:46.851Z,28.70
2018-03-04T15:00:16.666Z,28.60
2018-03-04T15:02:46.576Z,30.00
2018-03-04T15:05:16.564Z,30.20
2018-03-04T15:07:46.356Z,29.20
2018-03-04T15:10:16.182Z,29.00
2018-03-04T15:12:46.823Z,30.20
2018-03-04T15:15:16.780Z,30.20
2018-03-04T15:17:46.602Z,30.40
2018-03-04T15:20:16.410Z,30.30
2018-03-04T15:22:46.325Z,31.00
2018-03-04T15:25:16.126Z,31.70
2018-03-04T15:27:45.962Z,31.50
2018-03-04T15:30:15.748Z,31.90
2018-03-04T15:32:45.592Z,31.90
2018-03-04T15:35:15.452Z,31.60
2018-03-04T15:37:46.018Z,31.30
2018-03-04T15:40:15.791Z,31.30
2018-03-04T15:42:46.367Z,31.90
2018-03-04T15:45:16.174Z,31.20
2018-03-04T15:47:45.982Z,31.10
2018-03-04T15:50:15.753Z,31.30
2018-03-04T15:52:46.336Z,33.30
2018-03-04T15:55:16.108Z,32.70
2018-03-04T15:57:46.796Z,34.70
2018-03-04T16:00:16.624Z,34.70
2018-03-04T16:02:46.404Z,35.90
2018-03-04T16:05:16.248Z,35.80
2018-03-04T16:07:46.029Z,35.60
2018-03-04T16:10:15.845Z,35.40
2018-03-04T16:12:45.632Z,34.80
2018-03-04T16:15:15.445Z,35.40
2018-03-04T16:17:45.257Z,35.30
2018-03-04T16:20:15.810Z,35.70
2018-03-04T16:22:45.624Z,35.70
2018-03-04T16:25:15.449Z,35.70
2018-03-04T16:27:45.224Z,36.20
2018-03-04T16:30:15.802Z,37.30
2018-03-04T16:32:45.606Z,37.30
2018-03-04T16:35:15.477Z,37.50
2018-03-04T16:37:45.261Z,38.10
2018-03-04T16:40:15.053Z,38.50
2018-03-04T16:42:44.833Z,38.90
2018-03-04T16:45:14.752Z,39.10
2018-03-04T16:47:44.542Z,39.20
2018-03-04T16:50:16.296Z,39.90
2018-03-04T16:52:46.324Z,39.90
2018-03-04T16:55:16.883Z,40.40
2018-03-04T16:57:46.690Z,40.40
2018-03-04T17:00:16.526Z,40.70
2018-03-04T17:02:46.507Z,40.70
2018-03-04T17:05:16.297Z,40.60
2018-03-04T17:07:46.866Z,40.90
2018-03-04T17:10:16.682Z,40.90
2018-03-04T17:12:46.472Z,41.00
2018-03-04T17:15:16.260Z,40.70
2018-03-04T17:17:46.855Z,41.00
2018-03-04T17:20:16.633Z,41.00
2018-03-04T17:22:46.431Z,41.20
2018-03-04T17:25:17.018Z,41.30
2018-03-04T17:27:46.798Z,41.30
2018-03-04T17:30:16.586Z,41.20
2018-03-04T17:32:47.189Z,41.00
2018-03-04T17:35:16.960Z,40.90
2018-03-04T17:37:46.772Z,41.00
2018-03-04T17:40:16.367Z,41.20
2018-03-04T17:42:46.201Z,40.90
2018-03-04T17:45:15.982Z,40.90
2018-03-04T17:47:45.817Z,40.90
2018-03-04T17:50:15.717Z,41.00
2018-03-04T17:52:45.536Z,40.80
2018-03-04T17:55:15.340Z,41.00
2018-03-04T17:57:45.183Z,41.10
2018-03-04T18:00:15.066Z,41.20
2018-03-04T18:02:44.945Z,42.00
2018-03-04T18:05:15.545Z,41.80
2018-03-04T18:07:45.333Z,41.80
2018-03-04T18:10:15.145Z,41.60
2018-03-04T18:12:44.964Z,41.40
2018-03-04T18:15:14.747Z,41.60
2018-03-04T18:17:45.688Z,41.20
2018-03-04T18:20:14.859Z,41.40
2018-03-04T18:22:44.667Z,41.50
2018-03-04T18:25:14.490Z,41.60
2018-03-04T18:27:44.262Z,41.50
2018-03-04T18:30:14.133Z,41.50
2018-03-04T18:32:44.667Z,41.80
2018-03-04T18:35:15.261Z,41.70
2018-03-04T18:37:45.030Z,41.70
2018-03-04T18:40:14.848Z,41.90
2018-03-04T18:42:44.648Z,41.80
2018-03-04T18:45:14.458Z,42.10
2018-03-04T18:47:44.235Z,42.20
2018-03-04T18:50:14.074Z,42.60
2018-03-04T18:52:44.626Z,42.90
2018-03-04T18:55:14.450Z,42.90
2018-03-04T18:57:44.233Z,43.00
2018-03-04T19:00:14.046Z,43.10
2018-03-04T19:02:43.866Z,43.10
2018-03-04T19:05:13.650Z,43.20
2018-03-04T19:07:44.238Z,43.70
2018-03-04T19:10:14.058Z,43.50
2018-03-04T19:12:43.827Z,43.60
2018-03-04T19:15:13.643Z,43.70
2018-03-04T19:17:43.455Z,43.80
2018-03-04T19:20:13.270Z,43.90
2018-03-04T19:22:43.082Z,43.90
2018-03-04T19:25:12.923Z,44.10
2018-03-04T19:27:42.786Z,44.10
2018-03-04T19:30:13.376Z,44.30
2018-03-04T19:32:43.198Z,44.20
2018-03-04T19:35:12.998Z,44.40
2018-03-04T19:37:42.931Z,44.40
2018-03-04T19:40:12.853Z,44.60
2018-03-04T19:42:42.761Z,44.60
2018-03-04T19:45:12.647Z,44.50
2018-03-04T19:47:42.422Z,44.70
2018-03-04T19:50:13.115Z,44.90
2018-03-04T19:52:42.931Z,44.90
2018-03-04T19:55:12.758Z,44.80
2018-03-04T19:57:42.553Z,45.10
2018-03-04T20:00:12.388Z,44.90
2018-03-04T20:02:42.174Z,45.20
2018-03-04T20:05:11.994Z,45.20
2018-03-04T20:07:41.771Z,45.30
2018-03-04T20:10:11.399Z,45.60
2018-03-04T20:12:42.380Z,45.70
2018-03-04T20:15:13.022Z,45.60
2018-03-04T20:17:43.571Z,45.90
2018-03-04T20:20:13.492Z,45.80
2018-03-04T20:22:43.291Z,45.90
2018-03-04T20:25:13.097Z,46.00
2018-03-04T20:27:43.679Z,46.00
2018-03-04T20:30:13.500Z,46.00
2018-03-04T20:32:43.318Z,46.20
2018-03-04T20:35:13.144Z,46.20
2018-03-04T20:37:42.983Z,46.40
2018-03-04T20:40:13.521Z,46.80
2018-03-04T20:42:44.157Z,46.70
2018-03-04T20:45:14.739Z,47.10
2018-03-04T20:47:44.550Z,46.50
2018-03-04T20:50:14.334Z,46.70
2018-03-04T20:52:44.156Z,46.80
2018-03-04T20:55:13.985Z,46.90
2018-03-04T20:57:43.774Z,47.20
2018-03-04T21:00:13.587Z,47.10
2018-03-04T21:02:43.371Z,47.80
2018-03-04T21:05:13.943Z,47.40
2018-03-04T21:07:43.736Z,47.40
2018-03-04T21:10:13.549Z,47.30
2018-03-04T21:12:43.387Z,47.50
2018-03-04T21:15:13.374Z,47.70
2018-03-04T21:17:43.235Z,47.70
2018-03-04T21:20:13.083Z,47.80
2018-03-04T21:22:43.649Z,47.90
2018-03-04T21:25:13.479Z,47.80
2018-03-04T21:27:43.294Z,48.20
2018-03-04T21:30:13.154Z,48.10
2018-03-04T21:32:42.953Z,48.10
2018-03-04T21:35:12.508Z,48.20
2018-03-04T21:37:42.291Z,48.20
2018-03-04T21:40:12.153Z,48.10
2018-03-04T21:42:41.977Z,48.30
2018-03-04T21:45:11.762Z,48.40
2018-03-04T21:47:41.626Z,48.50
2018-03-04T21:50:12.161Z,48.50
2018-03-04T21:52:42.744Z,48.80
2018-03-04T21:55:12.529Z,48.80
2018-03-04T21:57:42.349Z,48.90
2018-03-04T22:00:11.601Z,48.80
2018-03-04T22:02:41.413Z,48.90
2018-03-04T22:05:10.954Z,49.30
2018-03-04T22:07:40.771Z,49.30
2018-03-04T22:10:10.556Z,49.30
2018-03-04T22:12:40.079Z,49.40
2018-03-04T22:15:09.864Z,49.50
2018-03-04T22:17:39.767Z,49.60
2018-03-04T22:20:09.557Z,50.00
2018-03-04T22:22:39.378Z,49.90
2018-03-04T22:25:09.167Z,49.90
2018-03-04T22:27:39.433Z,50.10
2018-03-04T22:30:09.215Z,50.20
2018-03-04T22:32:39.803Z,50.30
2018-03-04T22:35:10.439Z,50.50
2018-03-04T22:37:40.249Z,50.40
2018-03-04T22:40:10.045Z,50.60
2018-03-04T22:42:39.841Z,50.70
2018-03-04T22:45:10.596Z,51.00
2018-03-04T22:47:40.190Z,51.00
2018-03-04T22:50:09.682Z,50.90
2018-03-04T22:52:39.540Z,51.00
2018-03-04T22:55:09.056Z,51.00
2018-03-04T22:57:38.844Z,51.00
2018-03-04T23:00:09.057Z,51.30
2018-03-04T23:02:38.582Z,51.30
2018-03-04T23:05:09.183Z,51.60
2018-03-04T23:07:38.673Z,51.60
2018-03-04T23:10:08.648Z,51.70
2018-03-04T23:12:38.644Z,51.80
2018-03-04T23:15:08.188Z,51.70
2018-03-04T23:17:37.700Z,52.00
2018-03-04T23:20:07.531Z,52.20
2018-03-04T23:22:37.789Z,52.40
2018-03-04T23:25:07.311Z,52.40
2018-03-04T23:27:36.944Z,52.40
2018-03-04T23:30:06.437Z,52.20
2018-03-04T23:32:35.960Z,52.40
2018-03-04T23:35:05.483Z,52.50
2018-03-04T23:37:35.752Z,52.60
2018-03-04T23:40:05.297Z,52.60
2018-03-04T23:42:35.078Z,53.20
2018-03-04T23:45:04.265Z,53.10
2018-03-04T23:47:34.656Z,53.20
2018-03-04T23:50:04.596Z,53.70
2018-03-04T23:52:34.117Z,53.60
2018-03-04T23:55:03.622Z,53.50
2018-03-04T23:57:33.153Z,53.60
